Time;durP1;ratioP1;P1;durP2;ratioP2;P2;SDS_P1;SDS_P2;PMS_P1;PMS_P2;Temp;Humidity;BMP_temperature;BMP_pressure;BME280_temperature;BME280_humidity;BME280_pressure;Samples;Min_cycle;Max_cycle;Signal;HPM_P1;HPM_P2
2023/10/26 00:01:30;;;;;;;4.80;4.30;;;11.80;99.90;;;-141.84;100.00;119224.81;5000594;28;20632;-60
2023/10/26 00:03:59;;;;;;;4.97;4.50;;;11.80;99.90;;;-141.84;100.00;119224.81;5002608;28;20207;-60
2023/10/26 00:06:27;;;;;;;5.20;4.70;;;11.80;99.90;;;-141.84;100.00;119224.81;4996739;28;20269;-60
2023/10/26 00:08:57;;;;;;;4.72;4.32;;;11.80;99.90;;;-141.84;100.00;119224.81;4999976;28;20219;-60
2023/10/26 00:11:25;;;;;;;4.53;4.13;;;11.80;99.90;;;-141.84;100.00;119224.81;4996786;28;20199;-59
2023/10/26 00:13:53;;;;;;;5.25;4.18;;;11.80;99.90;;;-141.84;100.00;119224.81;5000435;28;20291;-60
2023/10/26 00:16:21;;;;;;;4.72;4.32;;;11.90;99.90;;;-141.84;100.00;119224.81;4997129;28;20302;-61
2023/10/26 00:18:49;;;;;;;5.22;4.72;;;11.90;99.90;;;-141.84;100.00;119224.81;5003488;28;20265;-60
2023/10/26 00:21:18;;;;;;;5.10;4.70;;;11.90;99.90;;;-141.84;100.00;119224.81;4996089;28;20212;-61
2023/10/26 00:23:46;;;;;;;5.03;4.55;;;11.90;99.90;;;-141.84;100.00;119224.81;4997756;28;20204;-60
2023/10/26 00:26:15;;;;;;;4.95;4.47;;;12.00;99.90;;;-141.84;100.00;119224.81;4997400;28;20218;-60
2023/10/26 00:28:44;;;;;;;4.60;4.20;;;12.00;99.90;;;-141.84;100.00;119224.81;4995389;28;20314;-59
2023/10/26 00:31:12;;;;;;;5.03;4.57;;;11.90;99.90;;;-141.84;100.00;119224.81;4996317;28;20724;-60
2023/10/26 00:33:40;;;;;;;4.45;4.05;;;11.90;99.90;;;-141.84;100.00;119224.81;4996108;28;20196;-60
2023/10/26 00:36:09;;;;;;;4.38;4.07;;;11.90;99.90;;;-141.84;100.00;119224.81;4993685;28;20263;-60
2023/10/26 00:38:37;;;;;;;4.32;3.92;;;12.00;99.90;;;-141.84;100.00;119224.81;4993204;28;20425;-59
2023/10/26 00:41:05;;;;;;;4.45;4.05;;;12.00;99.90;;;-141.84;100.00;119224.81;4999365;28;20210;-61
2023/10/26 00:43:35;;;;;;;4.72;4.15;;;12.00;99.90;;;-141.84;100.00;119224.81;4996015;28;20204;-60
2023/10/26 00:46:06;;;;;;;4.40;3.90;;;11.90;99.90;;;-141.84;100.00;119224.81;4999538;28;20690;-67
2023/10/26 00:48:34;;;;;;;4.43;4.03;;;11.90;99.90;;;-141.84;100.00;119224.81;4995937;28;20211;-67
2023/10/26 00:51:03;;;;;;;4.30;3.90;;;11.90;99.90;;;-141.84;100.00;119224.81;4996616;28;20206;-67
2023/10/26 00:53:33;;;;;;;3.58;3.28;;;12.00;99.90;;;-141.84;100.00;119224.81;4997016;28;20756;-68
2023/10/26 00:56:01;;;;;;;4.40;4.00;;;11.90;99.90;;;-141.84;100.00;119224.81;4998004;28;20290;-67
2023/10/26 00:58:31;;;;;;;3.70;3.40;;;11.90;99.90;;;-141.84;100.00;119224.81;4993276;28;20595;-67
2023/10/26 01:01:01;;;;;;;6.35;3.55;;;11.90;99.90;;;-141.84;100.00;119224.81;4997219;28;20961;-68
2023/10/26 01:03:33;;;;;;;4.60;4.20;;;11.90;99.90;;;-141.84;100.00;119224.81;4992966;28;20231;-71
2023/10/26 01:06:01;;;;;;;4.20;3.90;;;11.80;99.90;;;-141.84;100.00;119224.81;4997164;28;20227;-68
2023/10/26 01:08:29;;;;;;;4.32;3.92;;;11.90;99.90;;;-141.84;100.00;119224.81;4997721;28;20227;-68
2023/10/26 01:10:58;;;;;;;5.93;4.63;;;11.90;99.90;;;-141.84;100.00;119224.81;4999371;28;20290;-68
2023/10/26 01:13:26;;;;;;;5.25;4.75;;;11.90;99.90;;;-141.84;100.00;119224.81;4995671;28;20239;-68
2023/10/26 01:15:55;;;;;;;4.10;3.72;;;11.90;99.90;;;-141.84;100.00;119224.81;4996058;28;20292;-67
2023/10/26 01:18:25;;;;;;;3.63;3.33;;;11.80;99.90;;;-141.84;100.00;119224.81;4998526;28;20269;-68
2023/10/26 01:20:54;;;;;;;4.72;3.38;;;11.80;99.90;;;-141.84;100.00;119224.81;4992870;28;20227;-68
2023/10/26 01:23:23;;;;;;;4.13;3.67;;;11.90;99.90;;;-141.84;100.00;119224.81;4998436;28;20693;-68
2023/10/26 01:25:55;;;;;;;3.80;3.50;;;11.80;99.90;;;-141.84;100.00;119224.81;4995099;28;20235;-67
2023/10/26 01:28:25;;;;;;;3.92;3.63;;;11.80;99.90;;;-141.84;100.00;119224.81;4998789;28;20242;-67
2023/10/26 01:30:53;;;;;;;5.03;4.53;;;11.80;99.90;;;-141.84;100.00;119224.81;4998560;28;20692;-68
2023/10/26 01:33:22;;;;;;;3.47;3.17;;;11.80;99.90;;;-141.84;100.00;119224.81;4995146;28;20280;-67
2023/10/26 01:35:50;;;;;;;3.38;3.08;;;11.80;99.90;;;-141.84;100.00;119224.81;4995113;28;20203;-68
2023/10/26 01:38:18;;;;;;;4.50;3.37;;;11.80;99.90;;;-141.84;100.00;119224.81;4995963;28;20304;-68
2023/10/26 01:40:49;;;;;;;3.37;2.90;;;11.80;99.90;;;-141.84;100.00;119224.81;5001281;28;20269;-67
2023/10/26 01:43:17;;;;;;;3.58;3.28;;;11.80;99.90;;;-141.84;100.00;119224.81;4995428;28;20203;-67
2023/10/26 01:45:45;;;;;;;3.88;3.20;;;11.80;99.90;;;-141.84;100.00;119224.81;4993533;28;20203;-68
2023/10/26 01:48:14;;;;;;;3.45;3.20;;;11.80;99.90;;;-141.84;100.00;119224.81;4995633;28;20310;-68
2023/10/26 01:50:42;;;;;;;4.20;3.60;;;11.80;99.90;;;-141.84;100.00;119224.81;5001212;28;20205;-67
2023/10/26 01:53:10;;;;;;;4.40;4.10;;;11.90;99.90;;;-141.84;100.00;119224.81;4992704;28;20687;-67
2023/10/26 01:55:38;;;;;;;7.30;4.70;;;11.90;99.90;;;-141.84;100.00;119224.81;4994965;28;20648;-68
2023/10/26 01:58:08;;;;;;;7.32;6.22;;;11.80;99.90;;;-141.84;100.00;119224.81;4999196;28;20286;-67
2023/10/26 02:00:36;;;;;;;11.05;7.00;;;11.80;99.90;;;-141.84;100.00;119224.81;4994839;28;20675;-68
2023/10/26 02:03:04;;;;;;;9.65;7.40;;;11.90;99.90;;;-141.84;100.00;119224.81;4995031;28;20666;-67
2023/10/26 02:05:34;;;;;;;12.50;9.02;;;11.90;99.90;;;-141.84;100.00;119224.81;4998126;28;20210;-66
2023/10/26 02:08:02;;;;;;;12.98;9.45;;;11.80;99.90;;;-141.84;100.00;119224.81;4992663;28;20227;-68
2023/10/26 02:10:30;;;;;;;15.63;11.23;;;11.70;99.90;;;-141.84;100.00;119224.81;4998521;28;20964;-68
2023/10/26 02:12:59;;;;;;;14.52;10.82;;;11.80;99.90;;;-141.84;100.00;119224.81;4995436;28;20242;-67
2023/10/26 02:15:28;;;;;;;13.85;11.50;;;11.80;99.90;;;-141.84;100.00;119224.81;4993113;28;20229;-68
2023/10/26 02:17:56;;;;;;;13.75;12.00;;;11.90;99.90;;;-141.84;100.00;119224.81;4996067;28;20234;-67
2023/10/26 02:20:25;;;;;;;15.02;11.93;;;11.90;99.90;;;-141.84;100.00;119224.81;4995524;28;20290;-67
2023/10/26 02:22:53;;;;;;;16.02;12.07;;;11.90;99.90;;;-141.84;100.00;119224.81;4993434;28;20234;-68
2023/10/26 02:25:21;;;;;;;16.05;12.55;;;11.90;99.90;;;-141.84;100.00;119224.81;4994563;28;20203;-67
2023/10/26 02:27:49;;;;;;;15.77;11.90;;;11.90;99.90;;;-141.84;100.00;119224.81;4997743;28;20294;-66
2023/10/26 02:30:18;;;;;;;18.92;13.40;;;11.90;99.90;;;-141.84;100.00;119224.81;4996599;28;20227;-66
2023/10/26 02:32:47;;;;;;;15.65;12.55;;;11.90;99.90;;;-141.84;100.00;119224.81;4998883;28;20667;-68
2023/10/26 02:35:16;;;;;;;19.73;16.48;;;11.90;99.90;;;-141.84;100.00;119224.81;4991770;28;20203;-68
2023/10/26 02:37:44;;;;;;;22.75;17.85;;;11.90;99.90;;;-141.84;100.00;119224.81;4994555;28;20226;-68
2023/10/26 02:40:12;;;;;;;21.83;17.77;;;11.90;99.90;;;-141.84;100.00;119224.81;4993739;28;20598;-67
2023/10/26 02:42:41;;;;;;;21.73;18.70;;;11.90;99.90;;;-141.84;100.00;119224.81;4996224;28;20200;-67
2023/10/26 02:45:10;;;;;;;20.43;18.20;;;11.90;99.90;;;-141.84;100.00;119224.81;5000141;28;20290;-67
2023/10/26 02:47:38;;;;;;;19.90;17.23;;;11.90;99.90;;;-141.84;100.00;119224.81;4997828;28;20207;-67
2023/10/26 02:50:10;;;;;;;19.10;16.88;;;11.90;99.90;;;-141.84;100.00;119224.81;4994677;28;20223;-67
2023/10/26 02:52:39;;;;;;;16.35;13.88;;;11.90;99.90;;;-141.84;100.00;119224.81;5000671;28;20235;-67
2023/10/26 02:55:08;;;;;;;13.85;12.45;;;11.90;99.90;;;-141.84;100.00;119224.81;5002645;28;20311;-68
2023/10/26 02:57:36;;;;;;;12.38;11.18;;;12.00;99.90;;;-141.84;100.00;119224.81;5000327;28;20352;-67
2023/10/26 03:00:06;;;;;;;11.10;9.50;;;12.00;99.90;;;-141.84;100.00;119224.81;5004296;28;20210;-68
2023/10/26 03:02:34;;;;;;;8.05;7.15;;;11.90;99.90;;;-141.84;100.00;119224.81;4998430;28;20207;-68
2023/10/26 03:05:03;;;;;;;8.00;5.87;;;12.00;99.90;;;-141.84;100.00;119224.81;5000048;28;20793;-66
2023/10/26 03:07:33;;;;;;;4.60;4.20;;;12.00;99.90;;;-141.84;100.00;119224.81;4999199;28;20262;-68
2023/10/26 03:10:05;;;;;;;4.30;3.90;;;12.00;99.90;;;-141.84;100.00;119224.81;5003723;28;20221;-67
2023/10/26 03:12:33;;;;;;;5.85;5.30;;;12.10;99.90;;;-141.84;100.00;119224.81;5001561;28;20572;-68
2023/10/26 03:15:01;;;;;;;3.78;3.25;;;12.10;99.90;;;-141.84;100.00;119224.81;4995078;28;20282;-66
2023/10/26 03:17:29;;;;;;;2.53;2.33;;;12.20;99.90;;;-141.84;100.00;119224.81;4995481;28;20206;-67
2023/10/26 03:19:58;;;;;;;2.50;2.30;;;12.10;99.90;;;-141.84;100.00;119224.81;4998979;28;20218;-68
2023/10/26 03:22:26;;;;;;;2.17;2.07;;;12.10;99.90;;;-141.84;100.00;119224.81;5004197;28;20297;-59
2023/10/26 03:24:55;;;;;;;2.47;1.90;;;12.10;99.90;;;-141.84;100.00;119224.81;5000656;28;20230;-59
2023/10/26 03:27:24;;;;;;;3.22;1.92;;;12.00;99.90;;;-141.84;100.00;119224.81;4997910;28;20203;-60
2023/10/26 03:29:52;;;;;;;3.47;1.80;;;12.00;99.90;;;-141.84;100.00;119224.81;5001931;28;20727;-59
2023/10/26 03:32:20;;;;;;;2.07;1.90;;;12.00;99.90;;;-141.84;100.00;119224.81;4999748;28;20212;-61
2023/10/26 03:34:49;;;;;;;2.28;1.73;;;12.10;99.90;;;-141.84;100.00;119224.81;4993621;28;20387;-60
2023/10/26 03:37:17;;;;;;;2.10;2.00;;;12.10;99.90;;;-141.84;100.00;119224.81;4997323;28;20282;-59
2023/10/26 03:39:46;;;;;;;2.20;2.00;;;12.00;99.90;;;-141.84;100.00;119224.81;4998009;28;20206;-60
2023/10/26 03:42:15;;;;;;;1.83;1.73;;;12.00;99.90;;;-141.84;100.00;119224.81;4997080;28;20730;-59
2023/10/26 03:44:44;;;;;;;1.77;1.67;;;12.00;99.90;;;-141.84;100.00;119224.81;4992053;28;20200;-60
2023/10/26 03:47:12;;;;;;;2.10;1.90;;;11.90;99.90;;;-141.84;100.00;119224.81;4993706;28;20859;-60
2023/10/26 03:49:40;;;;;;;2.28;2.08;;;11.80;99.90;;;-141.84;100.00;119224.81;4996559;28;20219;-59
2023/10/26 03:52:08;;;;;;;1.90;1.80;;;11.80;99.90;;;-141.84;100.00;119224.81;4997690;28;20303;-60
2023/10/26 03:54:37;;;;;;;2.43;1.80;;;11.80;99.90;;;-141.84;100.00;119224.81;4999306;28;20579;-60
2023/10/26 03:57:06;;;;;;;2.23;1.83;;;11.80;99.90;;;-141.84;100.00;119224.81;4997358;28;20292;-58
2023/10/26 03:59:36;;;;;;;2.60;2.00;;;11.80;99.90;;;-141.84;100.00;119224.81;4993762;28;20200;-59
2023/10/26 04:02:04;;;;;;;2.33;1.63;;;11.70;99.90;;;-141.84;100.00;119224.81;4997859;28;20686;-60
2023/10/26 04:04:33;;;;;;;1.93;1.60;;;11.70;99.90;;;-141.84;100.00;119224.81;4997445;28;20200;-65
2023/10/26 04:07:01;;;;;;;3.73;1.87;;;11.60;99.90;;;-141.84;100.00;119224.81;4999953;28;20203;-66
2023/10/26 04:09:29;;;;;;;2.30;2.10;;;11.70;99.90;;;-141.84;100.00;119224.81;4994035;28;20231;-67
2023/10/26 04:11:57;;;;;;;2.55;2.30;;;11.60;99.90;;;-141.84;100.00;119224.81;4995317;28;20234;-59
2023/10/26 04:14:26;;;;;;;2.97;2.47;;;11.60;99.90;;;-141.84;100.00;119224.81;4993238;28;20207;-59
2023/10/26 04:16:55;;;;;;;3.38;1.85;;;11.60;99.90;;;-141.84;100.00;119224.81;4999723;28;20294;-60
2023/10/26 04:19:23;;;;;;;2.50;2.30;;;11.60;99.90;;;-141.84;100.00;119224.81;4993243;28;20207;-59
2023/10/26 04:21:52;;;;;;;2.40;2.20;;;11.50;99.90;;;-141.84;100.00;119224.81;4999969;28;20207;-59
2023/10/26 04:24:20;;;;;;;2.63;2.43;;;11.50;99.90;;;-141.84;100.00;119224.81;4998911;28;20221;-59
2023/10/26 04:26:48;;;;;;;2.53;2.30;;;11.40;99.90;;;-141.84;100.00;119224.81;4995192;28;20195;-59
2023/10/26 04:29:16;;;;;;;4.20;3.80;;;11.50;99.90;;;-141.84;100.00;119222.75;5002397;28;20218;-60
2023/10/26 04:31:44;;;;;;;2.87;2.67;;;11.50;99.90;;;-141.84;100.00;118689.38;4999699;28;20301;-60
2023/10/26 04:34:15;;;;;;;2.53;2.33;;;11.50;99.90;;;-141.84;100.00;118422.72;4999331;28;20227;-60
2023/10/26 04:36:43;;;;;;;3.53;3.10;;;11.50;99.90;;;-141.84;100.00;117622.84;4998728;28;20710;-60
2023/10/26 04:39:13;;;;;;;3.55;2.38;;;11.50;99.90;;;-141.84;100.00;116023.56;4992953;28;20666;-60
2023/10/26 04:41:41;;;;;;;3.60;2.80;;;11.50;99.90;;;-141.84;100.00;114424.91;4996435;28;20206;-59
2023/10/26 04:44:09;;;;;;;3.40;3.10;;;11.50;99.90;;;-141.84;100.00;116023.56;4994377;28;20707;-59
2023/10/26 04:46:37;;;;;;;3.80;3.50;;;11.40;99.90;;;-141.84;100.00;116290.06;5001656;28;20239;-60
2023/10/26 04:49:05;;;;;;;3.43;3.13;;;11.50;99.90;;;-141.84;100.00;111495.69;4996872;28;20287;-60
2023/10/26 04:51:35;;;;;;;4.50;3.15;;;11.50;99.90;;;-141.84;100.00;112560.63;4999622;28;20300;-59
2023/10/26 04:54:03;;;;;;;3.20;2.90;;;11.50;99.90;;;-141.84;100.00;111229.50;4995723;28;20366;-59
2023/10/26 04:56:32;;;;;;;3.70;3.40;;;11.50;99.90;;;-141.84;100.00;112294.34;4998912;28;20202;-59
2023/10/26 04:59:00;;;;;;;3.45;3.15;;;11.50;99.90;;;-141.84;100.00;109366.66;4999993;28;20227;-60
2023/10/26 05:01:28;;;;;;;3.13;2.90;;;11.50;99.90;;;-141.84;100.00;110963.31;4995573;28;20198;-60
2023/10/26 05:03:56;;;;;;;4.00;2.60;;;11.50;99.90;;;-141.84;100.00;109632.72;4993590;28;20282;-59
2023/10/26 05:06:26;;;;;;;2.70;2.50;;;11.50;99.90;;;-141.84;100.00;106972.81;4996019;28;20264;-60
2023/10/26 05:08:55;;;;;;;3.40;2.67;;;11.50;99.90;;;-141.84;100.00;106706.94;4996784;28;20222;-59
2023/10/26 05:11:24;;;;;;;4.70;3.47;;;11.50;99.90;;;-141.84;100.00;109100.59;4992583;28;20223;-60
2023/10/26 05:13:53;;;;;;;2.93;2.63;;;11.50;99.90;;;-141.84;100.00;110963.31;4998006;28;20302;-59
2023/10/26 05:16:21;;;;;;;3.10;2.90;;;11.50;99.90;;;-141.84;100.00;114957.72;4999033;28;20230;-61
2023/10/26 05:18:49;;;;;;;3.03;2.50;;;11.50;99.90;;;-141.84;100.00;114158.53;4999325;28;20292;-61
2023/10/26 05:21:17;;;;;;;2.27;2.07;;;11.40;99.90;;;-141.84;100.00;107504.66;4999034;28;20215;-60
2023/10/26 05:23:47;;;;;;;2.70;2.47;;;11.50;99.90;;;-141.84;100.00;107504.66;4996416;28;20207;-61
2023/10/26 05:26:17;;;;;;;2.57;2.37;;;11.50;99.90;;;-141.84;100.00;109100.59;4990600;28;20719;-59
2023/10/26 05:28:47;;;;;;;2.60;2.40;;;11.40;99.90;;;-141.84;100.00;112028.13;4995516;28;20842;-59
2023/10/26 05:31:15;;;;;;;3.10;2.80;;;11.40;99.90;;;-141.84;100.00;113359.50;5001504;28;20213;-67
2023/10/26 05:33:43;;;;;;;2.70;2.50;;;11.50;99.90;;;-141.84;100.00;113359.50;4998807;28;20196;-67
2023/10/26 05:36:11;;;;;;;2.30;2.10;;;11.40;99.90;;;-141.84;100.00;116023.56;4992140;28;20534;-66
2023/10/26 05:38:40;;;;;;;2.70;2.50;;;11.30;99.90;;;-141.84;100.00;118689.38;4995848;28;20242;-66
2023/10/26 05:41:08;;;;;;;3.30;3.00;;;11.30;99.90;;;-141.84;100.00;119224.81;4993330;28;20245;-66
2023/10/26 05:43:37;;;;;;;3.53;3.23;;;11.30;99.90;;;-141.84;100.00;119224.81;4999649;28;20679;-67
2023/10/26 05:46:06;;;;;;;5.53;3.90;;;11.20;99.90;;;-141.84;100.00;119222.75;4999067;28;20195;-67
2023/10/26 05:48:34;;;;;;;3.20;2.90;;;11.30;99.90;;;-141.84;100.00;117889.44;4996056;28;20210;-66
2023/10/26 05:51:03;;;;;;;2.83;2.47;;;11.30;99.90;;;-141.84;100.00;118422.72;4998749;28;20229;-66
2023/10/26 05:53:31;;;;;;;4.03;2.77;;;11.20;99.90;;;-141.84;100.00;118156.06;4998945;28;20250;-67
2023/10/26 05:56:00;;;;;;;3.63;3.05;;;11.30;99.90;;;-141.84;100.00;118156.06;4999222;28;20235;-66
2023/10/26 05:58:27;;;;;;;3.00;2.70;;;11.20;99.90;;;-141.84;100.00;118689.38;4994772;28;20249;-67
2023/10/26 06:00:57;;;;;;;3.93;3.40;;;11.20;99.90;;;-141.84;100.00;118689.38;4998530;28;20198;-66
2023/10/26 06:03:26;;;;;;;3.23;2.93;;;11.20;99.90;;;-141.84;100.00;118956.03;5000173;28;20290;-66
2023/10/26 06:05:59;;;;;;;3.10;2.90;;;11.10;99.90;;;-141.84;100.00;118956.03;4995329;28;20299;-67
2023/10/26 06:08:28;;;;;;;3.07;2.53;;;11.20;99.90;;;-141.84;100.00;118956.03;5000165;28;20195;-66
2023/10/26 06:10:57;;;;;;;2.70;2.50;;;11.20;99.90;;;-141.84;100.00;119224.81;4996587;28;20766;-67
2023/10/26 06:13:26;;;;;;;4.03;3.63;;;11.20;99.90;;;-141.84;100.00;119224.81;4998488;28;20249;-66
2023/10/26 06:15:56;;;;;;;4.20;3.60;;;11.20;99.90;;;-141.84;100.00;119224.81;4991161;28;20243;-67
2023/10/26 06:18:24;;;;;;;4.67;4.20;;;11.20;99.90;;;-141.84;100.00;119224.81;4989541;28;20660;-67
2023/10/26 06:21:00;;;;;;;4.73;3.90;;;11.20;99.90;;;-141.84;100.00;119222.75;4989740;28;20199;-67
2023/10/26 06:23:28;;;;;;;3.70;3.40;;;11.20;99.90;;;-141.84;100.00;118956.03;4983090;28;20195;-66
2023/10/26 06:26:02;;;;;;;4.70;4.30;;;11.20;99.90;;;-141.84;100.00;119222.75;4988237;28;20198;-59
2023/10/26 06:28:30;;;;;;;3.93;3.63;;;11.20;99.90;;;-141.84;100.00;118422.72;5000852;28;20285;-60
2023/10/26 06:31:11;;;;;;;4.03;3.60;;;11.30;99.90;;;-141.84;100.00;118956.03;5001691;28;20230;-60
2023/10/26 06:33:39;;;;;;;3.70;3.40;;;11.20;99.90;;;-141.84;100.00;119222.75;5002430;28;20556;-60
2023/10/26 06:36:09;;;;;;;3.73;3.40;;;11.20;99.90;;;-141.84;100.00;118956.03;4999463;28;20204;-60
2023/10/26 06:38:39;;;;;;;4.30;3.20;;;11.20;99.90;;;-141.84;100.00;118689.38;4998734;28;20203;-60
2023/10/26 06:41:08;;;;;;;3.50;3.20;;;11.30;99.90;;;-141.84;100.00;119224.81;4994046;28;20584;-59
2023/10/26 06:43:38;;;;;;;3.47;3.17;;;11.20;99.90;;;-141.84;100.00;119224.81;4996407;28;20204;-62
2023/10/26 06:46:06;;;;;;;3.53;3.23;;;11.20;99.90;;;-141.84;100.00;119224.81;4997742;28;20282;-60
2023/10/26 06:48:37;;;;;;;3.20;3.00;;;11.30;99.90;;;-141.84;100.00;118422.72;4998891;28;20223;-60
2023/10/26 06:51:06;;;;;;;3.00;2.80;;;11.30;99.90;;;-141.84;100.00;116023.56;4999212;28;20207;-60
2023/10/26 06:53:35;;;;;;;3.07;2.87;;;11.30;99.90;;;-141.84;100.00;115757.06;4994362;28;20237;-60
2023/10/26 06:56:10;;;;;;;4.70;3.43;;;11.40;99.90;;;-141.84;100.00;117089.69;4994393;28;20206;-60
2023/10/26 06:58:39;;;;;;;2.90;2.70;;;11.40;99.90;;;-141.84;100.00;116290.06;5004470;28;20202;-61
2023/10/26 07:01:08;;;;;;;3.17;2.87;;;11.40;99.90;;;-141.84;100.00;115224.16;5000900;28;20202;-60
2023/10/26 07:03:51;;;;;;;3.93;2.90;;;11.40;99.90;;;-141.84;100.00;115490.59;4998930;28;20574;-60
2023/10/26 07:06:20;;;;;;;3.17;2.93;;;11.40;99.90;;;-141.84;100.00;115490.59;4998408;28;20278;-60
2023/10/26 07:08:49;;;;;;;4.07;3.00;;;11.50;99.90;;;-141.84;100.00;113625.81;4996083;28;20431;-61
2023/10/26 07:11:24;;;;;;;3.37;3.10;;;11.50;99.90;;;-141.84;100.00;114957.72;4997102;28;20733;-60
2023/10/26 07:13:52;;;;;;;4.23;3.93;;;11.50;99.90;;;-141.84;100.00;114957.72;4996705;28;20729;-60
2023/10/26 07:16:20;;;;;;;4.20;3.90;;;11.50;99.90;;;-141.84;100.00;112826.88;4997846;28;20199;-61
2023/10/26 07:18:50;;;;;;;3.30;3.10;;;11.60;99.90;;;-141.84;100.00;112826.88;4995950;28;20204;-61
2023/10/26 07:21:18;;;;;;;4.70;3.80;;;11.60;99.90;;;-141.84;100.00;112294.34;4992314;28;20246;-60
2023/10/26 07:23:46;;;;;;;4.43;4.03;;;11.60;99.90;;;-141.84;100.00;107238.72;4994127;28;20652;-60
2023/10/26 07:26:18;;;;;;;4.37;3.70;;;11.70;99.90;;;-141.84;100.00;107504.66;4994959;28;20770;-60
2023/10/26 07:28:46;;;;;;;4.40;4.00;;;11.70;99.90;;;-141.84;100.00;107504.66;4996626;28;20192;-60
2023/10/26 07:31:19;;;;;;;4.10;3.70;;;11.70;99.90;;;-141.84;100.00;108568.56;4991788;28;20752;-62
2023/10/26 07:33:49;;;;;;;4.20;3.80;;;11.70;99.90;;;-141.84;100.00;110431.03;4992874;28;20703;-60
2023/10/26 07:36:17;;;;;;;4.00;3.70;;;11.70;99.90;;;-141.84;100.00;112028.13;4994335;28;20215;-63
2023/10/26 07:38:46;;;;;;;5.37;4.17;;;11.70;99.90;;;-141.84;100.00;110431.03;4994117;28;20207;-61
2023/10/26 07:41:34;;;;;;;3.80;3.50;;;11.70;99.90;;;-141.84;100.00;109632.72;4993809;28;20218;-62
2023/10/26 07:44:22;;;;;;;3.73;3.40;;;11.70;99.90;;;-141.84;100.00;108568.56;4995166;28;20222;-62
2023/10/26 07:46:50;;;;;;;3.70;3.40;;;11.70;99.90;;;-141.84;100.00;110164.91;4998100;28;20231;-62
2023/10/26 07:49:20;;;;;;;3.50;3.20;;;11.70;99.90;;;-141.84;100.00;110431.03;4995710;28;20203;-62
2023/10/26 07:51:49;;;;;;;3.90;3.20;;;11.70;99.90;;;-141.84;100.00;111229.50;4994270;28;20223;-61
2023/10/26 07:54:18;;;;;;;3.97;3.57;;;11.70;99.90;;;-141.84;100.00;109898.81;4995743;28;20246;-61
2023/10/26 07:56:46;;;;;;;4.00;3.70;;;11.70;99.90;;;-141.84;100.00;110697.16;4990920;28;20196;-62
2023/10/26 07:59:14;;;;;;;4.40;3.97;;;11.80;99.90;;;-141.84;100.00;102189.38;4998409;28;20627;-61
2023/10/26 08:01:43;;;;;;;4.03;3.63;;;11.90;99.90;;;-141.84;100.00;96085.44;4996871;28;20640;-60
2023/10/26 08:04:11;;;;;;;3.83;3.43;;;11.90;99.90;;;-141.84;100.00;97676.88;4996371;28;20203;-61
2023/10/26 08:06:40;;;;;;;3.40;3.10;;;12.00;99.90;;;-141.84;100.00;91844.63;4999199;28;20199;-62
2023/10/26 08:09:08;;;;;;;3.30;3.00;;;12.00;99.90;;;-141.84;100.00;90255.47;4999874;28;20250;-61
2023/10/26 08:11:37;;;;;;;3.53;3.22;;;12.10;99.90;;;-141.84;100.00;92374.47;4993482;28;20230;-62
2023/10/26 08:14:05;;;;;;;4.37;3.20;;;12.10;99.90;;;-141.84;100.00;80733.66;4993317;28;20290;-62
2023/10/26 08:16:53;;;;;;;3.60;3.03;;;12.20;99.90;;;-141.84;100.00;68599.69;4994694;28;20203;-63
2023/10/26 08:19:22;;;;;;;3.60;3.30;;;12.30;99.90;;;-141.84;100.00;68072.97;4993386;28;20679;-61
2023/10/26 08:21:51;;;;;;;2.97;2.67;;;12.30;99.90;;;-141.84;100.00;78620.75;4994382;28;20200;-61
2023/10/26 08:24:19;;;;;;;3.40;3.10;;;12.30;99.90;;;-141.84;100.00;60443.22;4997996;28;20227;-62
2023/10/26 08:26:48;;;;;;;3.03;2.55;;;12.40;99.90;;;-141.84;100.00;60180.38;4997104;28;20278;-61
2023/10/26 08:29:16;;;;;;;3.15;2.95;;;12.50;99.90;;;-141.84;100.00;59391.97;4992405;28;20632;-62
2023/10/26 08:31:55;;;;;;;3.55;2.72;;;12.50;99.90;;;-141.84;100.00;56765.13;4993322;28;20708;-62
2023/10/26 08:34:23;;;;;;;3.95;3.00;;;12.60;99.90;;;-141.84;100.00;56765.13;4994481;28;20651;-61
2023/10/26 08:36:53;;;;;;;3.03;2.83;;;12.60;99.90;;;-141.84;100.00;58341.03;4997239;28;20308;-61
2023/10/26 08:39:39;;;;;;;4.55;2.80;;;12.70;99.90;;;-141.84;100.00;32744.78;4999000;28;20734;-62
2023/10/26 08:42:08;;;;;;;3.47;2.60;;;12.80;99.90;;;-141.84;100.00;27251.22;4996408;28;20236;-61
2023/10/26 08:44:37;;;;;;;3.17;2.80;;;13.00;99.90;;;-141.84;100.00;34741.56;4991515;28;20211;-62
2023/10/26 08:47:07;;;;;;;4.28;2.70;;;13.00;99.90;;;-141.84;100.00;21657.63;4991075;28;20227;-61
2023/10/26 08:49:37;;;;;;;4.10;2.65;;;13.00;99.90;;;-141.84;100.00;20027.25;4992407;28;20206;-61
2023/10/26 08:52:08;;;;;;;2.65;2.45;;;13.10;99.90;;;-141.84;100.00;19667.50;4993083;28;20398;-61
2023/10/26 08:54:37;;;;;;;2.50;2.30;;;13.00;99.90;;;-141.84;100.00;20844.38;4992776;28;20223;-62
2023/10/26 08:57:08;;;;;;;2.50;2.30;;;13.10;99.90;;;-141.84;100.00;21515.28;4992483;28;20239;-62
2023/10/26 08:59:37;;;;;;;2.28;2.08;;;13.10;99.90;;;-141.84;100.00;19387.06;4991726;28;20337;-62
2023/10/26 09:02:05;;;;;;;2.40;2.20;;;13.30;99.90;;;-141.84;100.00;19350.50;4999498;28;20195;-61
2023/10/26 09:04:34;;;;;;;2.55;2.35;;;13.50;99.90;;;-141.84;100.00;19354.56;4993949;28;20693;-61
2023/10/26 09:07:02;;;;;;;2.30;2.10;;;13.70;99.90;;;-141.84;99.05;19322.03;5001151;28;20211;-63
2023/10/26 09:09:44;;;;;;;2.60;2.40;;;13.80;99.90;;;-141.84;99.20;19250.91;4996422;28;20203;-62
2023/10/26 09:12:15;;;;;;;2.50;2.30;;;13.70;99.90;;;-141.84;97.87;19265.13;4996292;28;20634;-62
2023/10/26 09:14:58;;;;;;;2.78;2.58;;;13.60;99.90;;;-141.84;100.00;19175.72;4995783;28;20290;-62
2023/10/26 09:17:28;;;;;;;3.67;2.30;;;13.40;99.90;;;-141.84;100.00;19108.69;5003289;28;20230;-61
2023/10/26 09:19:58;;;;;;;2.92;2.30;;;13.20;99.90;;;-141.84;100.00;19137.13;4999278;28;21069;-61
2023/10/26 09:22:37;;;;;;;2.80;2.45;;;13.10;99.90;;;-141.84;99.83;19147.28;4993702;28;20279;-61
2023/10/26 09:25:13;;;;;;;3.72;2.58;;;13.20;99.90;;;-141.84;100.00;19216.38;4997842;28;21601;-62
2023/10/26 09:27:42;;;;;;;2.78;2.58;;;13.20;99.90;;;-141.84;99.60;19228.56;4996646;28;20199;-61
2023/10/26 09:30:25;;;;;;;3.00;2.72;;;13.30;99.90;;;-141.84;98.40;19220.44;4996691;28;20203;-62
2023/10/26 09:32:53;;;;;;;2.97;2.67;;;13.30;99.90;;;-141.84;99.73;19232.63;4993624;28;20348;-61
2023/10/26 09:35:29;;;;;;;3.22;2.80;;;13.40;99.90;;;-141.84;98.26;19263.09;5002977;28;20206;-62
2023/10/26 09:37:59;;;;;;;2.30;2.08;;;13.50;99.90;;;-141.84;96.06;19301.72;4993329;28;20203;-62
2023/10/26 09:40:29;;;;;;;2.78;2.47;;;13.50;99.90;;;-141.84;97.67;19246.84;5000391;28;20687;-61
2023/10/26 09:42:57;;;;;;;2.70;2.50;;;13.50;99.90;;;-141.84;99.41;19240.75;4993364;28;20195;-62
2023/10/26 09:45:27;;;;;;;2.50;2.30;;;13.50;99.90;;;-141.84;100.00;19204.19;4996179;28;20214;-61
2023/10/26 09:47:55;;;;;;;2.65;2.45;;;13.50;99.90;;;-141.84;97.30;19269.22;4999129;28;20203;-62
2023/10/26 09:50:25;;;;;;;2.90;2.60;;;13.50;99.90;;;-141.84;96.15;19340.31;4994212;28;20210;-62
2023/10/26 09:52:55;;;;;;;3.22;2.88;;;13.50;99.90;;;-141.84;97.18;19326.09;4994106;28;20779;-63
2023/10/26 09:55:25;;;;;;;3.17;2.88;;;13.50;99.90;;;-141.84;98.75;19309.84;4995218;28;20651;-61
2023/10/26 09:58:02;;;;;;;2.97;2.67;;;13.60;99.90;;;-141.84;95.16;19326.09;4994500;28;20314;-62
2023/10/26 10:00:33;;;;;;;3.15;2.80;;;13.70;99.90;;;-141.84;95.75;19383.00;5003145;28;20202;-63
2023/10/26 10:03:11;;;;;;;2.88;2.67;;;13.70;99.90;;;-141.84;96.67;19303.75;4999727;28;20198;-62
2023/10/26 10:05:42;;;;;;;3.28;2.80;;;13.70;99.90;;;-141.84;95.99;19354.56;5003252;28;20261;-62